Time;durP1;ratioP1;P1;durP2;ratioP2;P2;SDS_P1;SDS_P2;PMS_P1;PMS_P2;Temp;Humidity;BMP_temperature;BMP_pressure;BME280_temperature;BME280_humidity;BME280_pressure;Samples;Min_cycle;Max_cycle;Signal;HPM_P1;HPM_P2
2021/03/11 00:01:50;;;;;;;30.30;15.70;;;6.10;99.90;;;;;;5026422;28;20041;-87
2021/03/11 00:04:16;;;;;;;32.33;16.45;;;6.10;99.90;;;;;;5008575;28;20037;-88
2021/03/11 00:06:42;;;;;;;29.00;14.45;;;6.10;99.90;;;;;;5008784;28;20119;-87
2021/03/11 00:09:07;;;;;;;29.95;14.10;;;6.10;99.90;;;;;;5008819;28;20030;-87
2021/03/11 00:11:33;;;;;;;25.65;14.02;;;6.10;99.90;;;;;;5008800;28;20080;-86
2021/03/11 00:13:58;;;;;;;30.52;15.77;;;6.10;99.90;;;;;;5008440;28;20050;-87
2021/03/11 00:16:24;;;;;;;32.45;16.30;;;6.20;99.90;;;;;;5019403;28;20038;-87
2021/03/11 00:18:50;;;;;;;27.52;14.82;;;6.20;99.90;;;;;;5028156;28;20481;-86
2021/03/11 00:21:15;;;;;;;23.80;14.13;;;6.20;99.90;;;;;;5028155;28;20045;-85
2021/03/11 00:23:41;;;;;;;25.00;12.65;;;6.20;99.90;;;;;;5028245;28;20057;-86
2021/03/11 00:26:06;;;;;;;24.35;13.30;;;6.20;99.90;;;;;;5028072;28;20038;-87
2021/03/11 00:28:32;;;;;;;25.10;14.18;;;6.30;99.90;;;;;;5028226;28;20040;-86
2021/03/11 00:30:58;;;;;;;27.98;14.40;;;6.30;99.90;;;;;;5028151;28;20030;-86
2021/03/11 00:33:24;;;;;;;31.48;15.23;;;6.30;99.90;;;;;;5028122;28;20063;-87
2021/03/11 00:35:50;;;;;;;25.45;13.02;;;6.30;99.90;;;;;;5028057;28;20025;-87
2021/03/11 00:38:15;;;;;;;34.08;17.70;;;6.30;99.90;;;;;;5047288;28;20497;-86
2021/03/11 00:40:41;;;;;;;26.10;14.55;;;6.40;99.90;;;;;;5031849;28;20056;-87
2021/03/11 00:43:09;;;;;;;28.33;15.27;;;6.40;99.90;;;;;;5031943;28;20040;-87
2021/03/11 00:45:36;;;;;;;26.73;16.08;;;6.40;99.90;;;;;;5049595;28;20037;-86
2021/03/11 00:48:02;;;;;;;24.15;13.75;;;6.40;99.90;;;;;;5048547;28;20037;-86
2021/03/11 00:50:29;;;;;;;25.25;13.95;;;6.40;99.90;;;;;;5023345;28;20053;-86
2021/03/11 00:52:54;;;;;;;24.17;12.88;;;6.40;99.90;;;;;;5012140;28;20157;-85
2021/03/11 00:55:20;;;;;;;23.77;13.15;;;6.40;99.90;;;;;;5012016;28;20143;-85
2021/03/11 00:57:47;;;;;;;23.83;13.27;;;6.40;99.90;;;;;;5012128;28;20033;-86
2021/03/11 01:00:20;;;;;;;26.05;14.27;;;6.50;99.90;;;;;;5012402;28;20029;-86
2021/03/11 01:02:52;;;;;;;27.08;13.43;;;6.50;99.90;;;;;;5012965;28;20042;-87
2021/03/11 01:05:41;;;;;;;22.60;12.30;;;6.50;99.90;;;;;;5012199;28;20485;-86
2021/03/11 01:08:14;;;;;;;23.35;12.18;;;6.40;99.90;;;;;;4972913;28;20079;-85
2021/03/11 01:10:40;;;;;;;22.83;12.82;;;6.50;99.90;;;;;;4971969;28;20065;-85
2021/03/11 01:13:06;;;;;;;27.73;13.88;;;6.50;99.90;;;;;;4971662;28;20039;-86
2021/03/11 01:15:43;;;;;;;21.30;11.95;;;6.50;99.90;;;;;;4959734;28;20053;-86
2021/03/11 01:18:10;;;;;;;23.83;12.38;;;6.50;99.90;;;;;;4991396;28;20038;-86
2021/03/11 01:20:37;;;;;;;23.70;11.80;;;6.50;99.90;;;;;;5007317;28;20564;-86
2021/03/11 01:23:04;;;;;;;21.73;10.73;;;6.50;99.90;;;;;;4991101;28;20038;-86
2021/03/11 01:25:29;;;;;;;21.00;11.13;;;6.60;99.90;;;;;;4991095;28;20043;-86
2021/03/11 01:27:55;;;;;;;22.38;12.70;;;6.60;99.90;;;;;;4991177;28;20137;-84
2021/03/11 01:30:21;;;;;;;19.73;10.73;;;6.60;99.90;;;;;;5007429;28;20449;-86
2021/03/11 01:32:47;;;;;;;22.30;12.07;;;6.60;99.90;;;;;;4990766;28;20043;-86
2021/03/11 01:35:13;;;;;;;21.58;12.43;;;6.60;99.90;;;;;;4974747;28;20109;-87
2021/03/11 01:37:38;;;;;;;24.00;12.35;;;6.70;99.90;;;;;;4990848;28;20113;-86
2021/03/11 01:40:06;;;;;;;20.70;11.18;;;6.70;99.90;;;;;;5007316;28;20063;-87
2021/03/11 01:42:32;;;;;;;20.73;12.85;;;6.70;99.90;;;;;;5007107;28;20064;-87
2021/03/11 01:44:58;;;;;;;21.50;12.30;;;6.80;99.90;;;;;;5023842;28;20041;-87
2021/03/11 01:47:23;;;;;;;21.45;11.27;;;6.80;99.90;;;;;;5030962;28;20060;-86
2021/03/11 01:49:49;;;;;;;23.60;11.00;;;6.80;99.90;;;;;;5026897;28;20018;-86
2021/03/11 01:52:14;;;;;;;22.55;12.77;;;6.80;99.90;;;;;;5011162;28;20037;-86
2021/03/11 01:54:41;;;;;;;21.88;12.50;;;6.90;99.90;;;;;;5011342;28;20050;-86
2021/03/11 01:57:08;;;;;;;20.75;12.13;;;6.80;99.90;;;;;;5011327;28;20053;-86
2021/03/11 01:59:34;;;;;;;20.65;11.35;;;6.80;99.90;;;;;;5011472;28;20030;-86
2021/03/11 02:02:00;;;;;;;19.23;9.68;;;6.90;99.90;;;;;;5010737;28;20041;-86
2021/03/11 02:04:26;;;;;;;18.63;9.93;;;6.80;99.90;;;;;;5027250;28;20076;-86
2021/03/11 02:06:52;;;;;;;21.35;10.88;;;6.80;99.90;;;;;;5010694;28;20029;-86
2021/03/11 02:09:18;;;;;;;16.70;9.57;;;6.80;99.90;;;;;;5010923;28;20234;-85
2021/03/11 02:11:57;;;;;;;19.58;10.95;;;6.90;99.90;;;;;;5010917;28;20074;-86
2021/03/11 02:14:28;;;;;;;19.55;10.77;;;6.90;99.90;;;;;;5028194;28;20097;-86
2021/03/11 02:16:57;;;;;;;19.02;10.48;;;7.00;99.90;;;;;;5042031;28;20056;-86
2021/03/11 02:19:25;;;;;;;17.50;9.75;;;6.90;99.90;;;;;;5030355;28;20401;-86
2021/03/11 02:22:02;;;;;;;19.90;10.27;;;6.90;99.90;;;;;;5030200;28;20041;-87
2021/03/11 02:24:44;;;;;;;17.48;8.70;;;7.00;99.90;;;;;;5030466;28;20040;-86
2021/03/11 02:27:25;;;;;;;17.90;10.30;;;6.90;99.90;;;;;;5030139;28;20037;-87
2021/03/11 02:29:53;;;;;;;14.77;8.60;;;7.00;99.90;;;;;;5030057;28;20038;-87
2021/03/11 02:32:20;;;;;;;16.83;10.05;;;7.00;99.90;;;;;;5029729;28;20470;-86
2021/03/11 02:34:52;;;;;;;17.30;10.45;;;7.00;99.90;;;;;;5030198;28;20045;-86
2021/03/11 02:37:29;;;;;;;20.27;11.32;;;7.00;99.90;;;;;;5046475;28;20029;-87
2021/03/11 02:39:59;;;;;;;17.67;10.02;;;7.10;99.90;;;;;;5046662;28;20044;-85
2021/03/11 02:42:26;;;;;;;16.92;10.02;;;7.10;99.90;;;;;;5029485;28;20383;-85
2021/03/11 02:44:52;;;;;;;20.30;11.10;;;7.00;99.90;;;;;;5029775;28;20033;-85
2021/03/11 02:47:18;;;;;;;15.63;8.88;;;7.00;99.90;;;;;;5029686;28;20037;-85
2021/03/11 02:49:46;;;;;;;16.92;9.18;;;7.00;99.90;;;;;;5027108;28;20034;-85
2021/03/11 02:52:12;;;;;;;15.38;8.75;;;7.00;99.90;;;;;;5026189;28;20157;-86
2021/03/11 02:54:39;;;;;;;16.08;9.07;;;7.00;99.90;;;;;;5009911;28;20030;-85
2021/03/11 02:57:07;;;;;;;14.02;7.80;;;6.90;99.90;;;;;;5009738;28;20041;-85
2021/03/11 02:59:35;;;;;;;14.70;7.90;;;6.90;99.90;;;;;;5009914;28;20040;-85
2021/03/11 03:02:01;;;;;;;14.20;7.88;;;6.90;99.90;;;;;;5008583;28;20517;-86
2021/03/11 03:04:29;;;;;;;13.75;8.82;;;6.90;99.90;;;;;;5026133;28;20034;-85
2021/03/11 03:06:56;;;;;;;15.32;8.93;;;7.00;99.90;;;;;;5008937;28;20040;-84
2021/03/11 03:09:22;;;;;;;14.15;8.90;;;6.90;99.90;;;;;;5009917;28;20141;-82
2021/03/11 03:11:49;;;;;;;14.40;8.35;;;7.00;99.90;;;;;;5009724;28;20484;-86
2021/03/11 03:14:16;;;;;;;12.30;8.25;;;7.00;99.90;;;;;;5009513;28;20025;-85
2021/03/11 03:16:42;;;;;;;14.00;8.07;;;7.00;99.90;;;;;;5022685;28;20620;-85
2021/03/11 03:19:11;;;;;;;12.90;8.18;;;7.10;99.90;;;;;;5029202;28;20021;-85
2021/03/11 03:21:40;;;;;;;12.48;7.60;;;7.10;99.90;;;;;;5045526;28;20052;-85
2021/03/11 03:24:06;;;;;;;13.00;8.00;;;7.20;99.90;;;;;;5045580;28;20029;-85
2021/03/11 03:26:33;;;;;;;12.52;7.97;;;7.10;99.90;;;;;;5029136;28;20083;-86
2021/03/11 03:28:58;;;;;;;13.45;7.43;;;7.20;99.90;;;;;;5029158;28;20156;-86
2021/03/11 03:31:24;;;;;;;12.50;7.82;;;7.20;99.90;;;;;;5028943;28;20501;-85
2021/03/11 03:33:49;;;;;;;16.55;8.57;;;7.20;99.90;;;;;;5045301;28;20071;-85
2021/03/11 03:36:15;;;;;;;12.32;7.65;;;7.30;99.90;;;;;;5028891;28;20036;-85
2021/03/11 03:38:40;;;;;;;11.88;7.18;;;7.40;99.90;;;;;;5045379;28;20029;-85
2021/03/11 03:41:09;;;;;;;10.27;6.90;;;7.40;99.90;;;;;;5028644;28;20509;-85
2021/03/11 03:43:38;;;;;;;9.98;6.97;;;7.40;99.90;;;;;;5028715;28;20040;-83
2021/03/11 03:46:10;;;;;;;8.95;5.20;;;7.40;99.90;;;;;;5028765;28;20075;-85
2021/03/11 03:48:58;;;;;;;12.13;7.22;;;7.40;99.90;;;;;;5028734;28;20063;-86
2021/03/11 03:51:27;;;;;;;11.57;6.80;;;7.40;99.90;;;;;;5012714;28;20040;-86
2021/03/11 03:54:06;;;;;;;11.88;6.65;;;7.40;99.90;;;;;;5008872;28;20034;-86
2021/03/11 03:56:38;;;;;;;13.55;7.55;;;7.40;99.90;;;;;;5026675;28;20022;-86
2021/03/11 03:59:08;;;;;;;9.38;6.63;;;7.40;99.90;;;;;;5008974;28;20105;-87
2021/03/11 04:01:38;;;;;;;9.35;5.50;;;7.40;99.90;;;;;;5025335;28;20509;-86
2021/03/11 04:04:06;;;;;;;9.57;6.10;;;7.40;99.90;;;;;;5008819;28;20579;-86
2021/03/11 04:06:32;;;;;;;11.02;6.85;;;7.40;99.90;;;;;;5008559;28;20045;-86
2021/03/11 04:09:00;;;;;;;12.90;7.97;;;7.40;99.90;;;;;;5008502;28;20030;-85
2021/03/11 04:11:27;;;;;;;10.95;6.43;;;7.40;99.90;;;;;;5008570;28;20038;-85
2021/03/11 04:13:54;;;;;;;10.43;6.35;;;7.40;99.90;;;;;;5025426;28;20057;-86
2021/03/11 04:16:21;;;;;;;11.38;6.78;;;7.50;99.90;;;;;;5019851;28;20026;-85
2021/03/11 04:18:50;;;;;;;10.05;6.53;;;7.40;99.90;;;;;;5029329;28;20025;-85
2021/03/11 04:21:16;;;;;;;11.63;7.82;;;7.40;99.90;;;;;;5044636;28;20041;-85
2021/03/11 04:23:43;;;;;;;11.23;6.25;;;7.50;99.90;;;;;;5044593;28;20465;-85
2021/03/11 04:26:09;;;;;;;10.07;6.15;;;7.40;99.90;;;;;;5028219;28;20030;-85
2021/03/11 04:28:35;;;;;;;14.55;7.55;;;7.40;99.90;;;;;;5028047;28;20029;-86
2021/03/11 04:31:02;;;;;;;12.48;7.30;;;7.50;99.90;;;;;;5028154;28;20029;-87
2021/03/11 04:33:29;;;;;;;13.43;9.13;;;7.50;99.90;;;;;;5028079;28;20039;-86
2021/03/11 04:35:56;;;;;;;15.57;9.93;;;7.50;99.90;;;;;;5027743;28;20030;-85
2021/03/11 04:38:22;;;;;;;12.55;8.52;;;7.50;99.90;;;;;;5028035;28;20035;-85
2021/03/11 04:40:48;;;;;;;17.30;9.85;;;7.50;99.90;;;;;;5044512;28;20049;-86
2021/03/11 04:43:14;;;;;;;18.92;12.43;;;7.60;99.90;;;;;;5028061;28;20037;-86
2021/03/11 04:45:43;;;;;;;17.17;11.23;;;7.70;99.90;;;;;;5027998;28;20035;-87
2021/03/11 04:48:10;;;;;;;15.27;10.23;;;7.60;99.90;;;;;;5027979;28;20033;-86
2021/03/11 04:50:38;;;;;;;17.13;11.10;;;7.70;99.90;;;;;;5018151;28;20030;-86
2021/03/11 04:53:05;;;;;;;15.65;10.55;;;7.60;99.90;;;;;;5008531;28;20053;-87
2021/03/11 04:55:31;;;;;;;20.63;12.63;;;7.70;99.90;;;;;;5008413;28;20093;-86
2021/03/11 04:57:57;;;;;;;16.10;11.13;;;7.70;99.90;;;;;;5008256;28;20077;-87
2021/03/11 05:00:25;;;;;;;20.02;12.27;;;7.70;99.90;;;;;;5008538;28;20038;-86
2021/03/11 05:02:50;;;;;;;21.35;13.63;;;7.70;99.90;;;;;;5008152;28;20445;-86
2021/03/11 05:05:38;;;;;;;18.50;13.02;;;7.80;99.90;;;;;;5008200;28;20030;-85
2021/03/11 05:08:05;;;;;;;21.05;13.45;;;7.80;99.90;;;;;;4967943;28;20078;-86
2021/03/11 05:10:31;;;;;;;21.67;14.10;;;7.80;99.90;;;;;;4968141;28;20039;-85
2021/03/11 05:12:57;;;;;;;19.52;12.35;;;7.90;99.90;;;;;;4968068;28;20038;-85
2021/03/11 05:15:23;;;;;;;22.48;14.30;;;7.90;99.90;;;;;;4970338;28;20062;-85
2021/03/11 05:17:49;;;;;;;22.75;14.65;;;8.00;99.90;;;;;;4987273;28;20037;-84
2021/03/11 05:20:15;;;;;;;21.80;12.90;;;8.00;99.90;;;;;;4984628;28;20169;-84
2021/03/11 05:22:42;;;;;;;19.80;12.07;;;8.00;99.90;;;;;;4986769;28;20068;-84
2021/03/11 05:25:09;;;;;;;21.58;12.98;;;8.00;99.90;;;;;;4989395;28;20089;-84
2021/03/11 05:27:35;;;;;;;26.35;15.80;;;8.00;99.90;;;;;;4990826;28;20489;-85
2021/03/11 05:30:03;;;;;;;21.63;12.10;;;8.10;99.90;;;;;;4990700;28;20031;-85
2021/03/11 05:32:29;;;;;;;17.63;10.57;;;8.10;99.90;;;;;;5006505;28;20046;-85
2021/03/11 05:34:55;;;;;;;20.73;12.90;;;8.20;99.90;;;;;;5006486;28;20026;-85
2021/03/11 05:37:20;;;;;;;17.20;10.73;;;8.20;99.90;;;;;;5006647;28;20091;-84
2021/03/11 05:39:48;;;;;;;17.83;11.07;;;8.20;99.90;;;;;;5006670;28;20042;-84
2021/03/11 05:42:17;;;;;;;14.77;9.48;;;8.20;99.90;;;;;;5005115;28;20054;-83
2021/03/11 05:44:43;;;;;;;19.08;11.15;;;8.20;99.90;;;;;;5018401;28;20045;-85
2021/03/11 05:47:11;;;;;;;18.08;10.95;;;8.30;99.90;;;;;;5030843;28;20056;-84
2021/03/11 05:49:39;;;;;;;17.80;11.55;;;8.30;99.90;;;;;;5047216;28;20474;-82
2021/03/11 05:52:09;;;;;;;16.45;10.93;;;8.30;99.90;;;;;;5030541;28;20038;-85
2021/03/11 05:54:36;;;;;;;17.58;10.60;;;8.30;99.90;;;;;;5030605;28;20030;-84
2021/03/11 05:57:04;;;;;;;18.25;11.35;;;8.30;99.90;;;;;;5047139;28;20041;-85
2021/03/11 05:59:30;;;;;;;15.15;8.88;;;8.30;99.90;;;;;;5030657;28;20022;-85
2021/03/11 06:01:59;;;;;;;16.38;9.05;;;8.40;99.90;;;;;;5030347;28;20041;-84
2021/03/11 06:04:26;;;;;;;15.48;9.77;;;8.40;99.90;;;;;;5030704;28;20030;-85
2021/03/11 06:06:52;;;;;;;15.30;10.77;;;8.40;99.90;;;;;;5046912;28;20037;-85
2021/03/11 06:09:19;;;;;;;13.30;8.70;;;8.40;99.90;;;;;;5046771;28;20097;-85
2021/03/11 06:11:48;;;;;;;15.80;9.57;;;8.50;99.90;;;;;;5011725;28;20038;-85
2021/03/11 06:14:15;;;;;;;17.27;9.90;;;8.50;99.90;;;;;;5017752;28;20025;-85
2021/03/11 06:16:48;;;;;;;17.05;7.80;;;8.50;99.90;;;;;;5025266;28;20481;-85
2021/03/11 06:19:14;;;;;;;16.92;9.40;;;8.60;99.90;;;;;;5026787;28;20036;-85
2021/03/11 06:21:42;;;;;;;17.30;10.68;;;8.60;99.90;;;;;;5026726;28;20105;-85
2021/03/11 06:24:09;;;;;;;16.05;9.82;;;8.70;99.90;;;;;;5026592;28;20041;-85
2021/03/11 06:26:34;;;;;;;14.77;8.30;;;8.70;99.90;;;;;;5026592;28;20109;-85
2021/03/11 06:29:00;;;;;;;14.40;8.43;;;8.70;99.90;;;;;;5026651;28;20062;-85
2021/03/11 06:31:31;;;;;;;15.20;9.80;;;8.70;99.90;;;;;;5026593;28;20276;-85
2021/03/11 06:34:01;;;;;;;16.48;9.50;;;8.80;99.90;;;;;;5026131;28;20033;-85
2021/03/11 06:36:30;;;;;;;13.82;8.35;;;8.80;99.90;;;;;;5027181;28;20037;-85
2021/03/11 06:38:57;;;;;;;16.10;8.82;;;8.80;99.90;;;;;;5025777;28;20133;-85
2021/03/11 06:41:22;;;;;;;18.00;9.38;;;8.90;99.90;;;;;;5025543;28;20053;-85
2021/03/11 06:44:00;;;;;;;14.85;8.82;;;8.90;99.90;;;;;;5025781;28;20033;-85
2021/03/11 06:46:28;;;;;;;15.45;8.35;;;8.90;99.90;;;;;;5025808;28;20133;-85
2021/03/11 06:49:11;;;;;;;12.43;8.10;;;9.00;99.90;;;;;;5025645;28;20030;-85
2021/03/11 06:51:38;;;;;;;13.13;8.20;;;9.00;99.90;;;;;;5013086;28;20081;-87
2021/03/11 06:54:05;;;;;;;13.75;8.32;;;9.00;99.90;;;;;;5034771;28;20120;-86
2021/03/11 06:56:31;;;;;;;13.85;7.20;;;9.00;99.90;;;;;;5031603;28;20030;-87
2021/03/11 06:59:03;;;;;;;10.32;7.00;;;8.90;99.90;;;;;;5031579;28;20105;-86
2021/03/11 07:01:31;;;;;;;13.88;7.35;;;8.90;99.90;;;;;;5031573;28;20049;-86
2021/03/11 07:04:03;;;;;;;13.95;8.20;;;9.00;99.90;;;;;;5050568;28;20164;-86
2021/03/11 07:06:35;;;;;;;14.55;7.72;;;9.10;99.90;;;;;;5032366;28;20033;-86
2021/03/11 07:09:04;;;;;;;10.77;6.68;;;9.10;99.90;;;;;;5032186;28;20105;-86
2021/03/11 07:11:30;;;;;;;11.48;6.60;;;9.10;99.90;;;;;;5048413;28;20136;-86
2021/03/11 07:13:58;;;;;;;10.13;6.47;;;9.20;99.90;;;;;;5029891;28;20036;-87
2021/03/11 07:16:26;;;;;;;12.73;7.95;;;9.30;99.90;;;;;;5029046;28;20033;-86
2021/03/11 07:19:15;;;;;;;9.23;5.93;;;9.30;99.90;;;;;;5027828;28;20018;-86
2021/03/11 07:22:00;;;;;;;9.50;6.13;;;9.20;99.90;;;;;;5040767;28;20045;-86
2021/03/11 07:24:34;;;;;;;9.98;5.82;;;9.30;99.90;;;;;;5043997;28;20033;-87
2021/03/11 07:27:01;;;;;;;11.77;5.82;;;9.30;99.90;;;;;;5025976;28;20042;-88
2021/03/11 07:29:27;;;;;;;10.43;5.78;;;9.40;99.90;;;;;;5027690;28;20042;-87
2021/03/11 07:31:58;;;;;;;8.25;4.82;;;9.50;99.90;;;;;;5026096;28;20038;-87
2021/03/11 07:34:27;;;;;;;8.88;5.05;;;9.60;99.90;;;;;;5037380;28;20026;-87
2021/03/11 07:36:57;;;;;;;10.75;4.75;;;9.60;99.90;;;;;;5024933;28;20040;-87
2021/03/11 07:39:24;;;;;;;;;;;9.60;99.90;;;;;;5028471;28;20057;-88
2021/03/11 07:41:51;;;;;;;10.45;4.85;;;9.60;99.90;;;;;;5044460;28;19921;-86
2021/03/11 07:44:16;;;;;;;10.18;5.75;;;9.80;99.90;;;;;;5027724;28;20052;-85
2021/03/11 07:46:42;;;;;;;7.00;3.67;;;9.90;99.90;;;;;;5039212;28;20041;-88
2021/03/11 07:49:10;;;;;;;7.65;4.40;;;9.90;99.90;;;;;;5026810;28;20449;-87
2021/03/11 07:59:44;;;;;;;7.82;4.40;;;10.10;99.90;;;;;;4954782;28;20078;-87
2021/03/11 08:02:13;;;;;;;6.32;4.03;;;10.20;99.90;;;;;;4961858;28;20035;-87
2021/03/11 08:04:43;;;;;;;6.90;3.88;;;10.40;99.90;;;;;;4941467;28;20391;-86
2021/03/11 08:07:22;;;;;;;6.93;3.35;;;10.70;99.90;;;;;;4966409;28;20160;-86
2021/03/11 08:09:51;;;;;;;7.15;3.28;;;10.90;99.90;;;;;;4957637;28;20131;-86
2021/03/11 08:12:37;;;;;;;6.45;3.15;;;11.00;99.90;;;;;;4950750;28;20047;-86
2021/03/11 08:15:14;;;;;;;9.40;3.88;;;11.30;99.90;;;;;;4965489;28;20679;-86
2021/03/11 08:17:48;;;;;;;7.22;2.22;;;11.40;99.90;;;;;;4965455;28;20034;-84
2021/03/11 08:20:20;;;;;;;10.30;3.05;;;11.20;99.90;;;;;;4980697;28;20030;-86
2021/03/11 08:22:57;;;;;;;6.38;1.73;;;11.40;99.90;;;;;;4950607;28;20047;-86
2021/03/11 08:25:41;;;;;;;7.20;2.13;;;11.40;99.90;;;;;;4961818;28;20047;-86
2021/03/11 08:28:09;;;;;;;7.38;1.67;;;11.20;99.90;;;;;;4967601;28;20110;-86
2021/03/11 08:30:38;;;;;;;9.90;1.80;;;11.50;99.90;;;;;;4972054;28;20053;-86
2021/03/11 08:33:08;;;;;;;7.75;1.20;;;11.60;99.90;;;;;;5042608;28;20030;-86
2021/03/11 08:35:41;;;;;;;10.57;1.35;;;11.50;99.90;;;;;;5027766;28;20174;-87
2021/03/11 08:38:19;;;;;;;7.40;1.33;;;11.50;99.90;;;;;;5003833;28;20042;-86
2021/03/11 08:40:53;;;;;;;10.60;0.95;;;11.50;99.90;;;;;;5004580;28;20029;-86
2021/03/11 08:43:37;;;;;;;8.43;0.70;;;11.80;99.90;;;;;;5009971;28;20026;-87
2021/03/11 08:46:29;;;;;;;8.27;1.00;;;11.80;99.90;;;;;;5009100;28;20584;-87
2021/03/11 08:48:58;;;;;;;6.90;0.60;;;12.00;99.90;;;;;;5018884;28;20038;-86
2021/03/11 08:51:23;;;;;;;9.73;0.73;;;12.10;99.90;;;;;;5009559;28;20033;-85
2021/03/11 08:54:05;;;;;;;9.38;0.68;;;12.20;99.90;;;;;;5024297;28;20032;-86
2021/03/11 08:56:31;;;;;;;11.43;0.65;;;12.10;99.90;;;;;;5021214;28;20040;-86
2021/03/11 08:59:04;;;;;;;8.82;1.42;;;12.20;99.90;;;;;;5012155;28;20655;-86
2021/03/11 09:01:39;;;;;;;5.32;0.47;;;12.10;99.90;;;;;;5025863;28;20509;-87
2021/03/11 09:04:27;;;;;;;9.52;0.52;;;11.90;99.90;;;;;;5015849;28;20037;-85
2021/03/11 09:07:28;;;;;;;7.55;0.60;;;12.00;99.90;;;;;;4998928;28;20049;-85
2021/03/11 09:09:54;;;;;;;7.22;0.70;;;12.00;99.90;;;;;;5029670;28;20512;-85
2021/03/11 09:12:21;;;;;;;8.18;0.55;;;12.00;99.90;;;;;;5012624;28;20026;-85
2021/03/11 09:14:55;;;;;;;6.82;0.93;;;12.30;99.90;;;;;;5029166;28;20033;-86
2021/03/11 09:17:29;;;;;;;10.07;0.57;;;12.20;99.90;;;;;;5012511;28;20038;-88
2021/03/11 09:20:03;;;;;;;7.20;0.52;;;12.10;99.90;;;;;;5013363;28;20033;-87
2021/03/11 09:22:33;;;;;;;8.40;0.60;;;12.30;99.90;;;;;;5010998;28;20068;-88
2021/03/11 09:25:07;;;;;;;12.77;0.60;;;12.20;99.90;;;;;;5010244;28;20124;-89
2021/03/11 09:27:37;;;;;;;8.68;0.77;;;12.00;99.90;;;;;;5007131;28;20045;-90
2021/03/11 09:30:11;;;;;;;13.85;0.73;;;12.30;99.90;;;;;;5009622;28;20029;-88
2021/03/11 09:32:38;;;;;;;8.77;1.60;;;12.50;99.90;;;;;;5013289;28;20037;-87
2021/03/11 09:35:09;;;;;;;18.63;0.77;;;12.60;99.90;;;;;;5013004;28;20037;-87
2021/03/11 09:37:58;;;;;;;16.20;1.27;;;12.80;99.90;;;;;;5009839;28;20106;-88
2021/03/11 09:40:34;;;;;;;17.65;1.33;;;12.80;99.90;;;;;;5027841;28;20548;-83
2021/03/11 09:43:20;;;;;;;14.80;1.05;;;12.80;99.90;;;;;;4990587;28;20037;-85
2021/03/11 09:45:58;;;;;;;22.00;2.70;;;13.00;99.90;;;;;;5016148;28;20116;-85
2021/03/11 09:48:38;;;;;;;16.77;1.25;;;12.70;99.90;;;;;;4991835;28;20026;-88
2021/03/11 09:51:21;;;;;;;15.77;1.20;;;12.60;99.90;;;;;;4993791;28;20040;-89
2021/03/11 09:53:57;;;;;;;19.58;1.73;;;12.50;99.90;;;;;;4993178;28;20283;-85
2021/03/11 09:56:28;;;;;;;14.10;1.20;;;12.70;99.90;;;;;;5009168;28;20073;-89
2021/03/11 09:58:58;;;;;;;15.25;1.38;;;12.50;99.90;;;;;;4991959;28;20034;-90
2021/03/11 10:01:25;;;;;;;16.67;1.40;;;12.40;99.90;;;;;;4993195;28;20034;-88
2021/03/11 10:03:51;;;;;;;18.90;1.55;;;12.40;99.90;;;;;;4992775;28;20030;-88
2021/03/11 10:06:17;;;;;;;15.50;1.15;;;12.50;99.90;;;;;;4987184;28;20092;-89
2021/03/11 10:08:51;;;;;;;17.42;1.75;;;12.40;99.90;;;;;;4994345;28;20030;-91
2021/03/11 10:11:40;;;;;;;17.77;1.92;;;12.30;99.90;;;;;;4992115;28;20026;-87
2021/03/11 10:14:20;;;;;;;19.25;1.42;;;12.30;99.90;;;;;;4994458;28;20096;-89
2021/03/11 10:16:52;;;;;;;15.25;1.77;;;12.30;99.90;;;;;;4993489;28;20055;-89
2021/03/11 10:19:28;;;;;;;19.45;1.60;;;12.30;99.90;;;;;;5010738;28;20089;-87
2021/03/11 10:22:04;;;;;;;16.73;1.70;;;12.40;99.90;;;;;;4991976;28;20065;-87
2021/03/11 10:24:33;;;;;;;16.35;1.27;;;12.40;99.90;;;;;;5009191;28;20046;-87
2021/03/11 10:27:00;;;;;;;18.48;1.30;;;12.20;99.90;;;;;;4989294;28;20034;-88
2021/03/11 10:29:32;;;;;;;18.33;1.90;;;12.10;99.90;;;;;;5008702;28;20026;-88
2021/03/11 10:32:03;;;;;;;13.40;1.65;;;12.10;99.90;;;;;;4993183;28;20066;-87
2021/03/11 10:34:30;;;;;;;12.73;1.45;;;12.00;99.90;;;;;;4995100;28;20041;-87
2021/03/11 10:37:00;;;;;;;14.60;2.00;;;12.00;99.90;;;;;;5007265;28;20022;-89
2021/03/11 10:39:27;;;;;;;17.75;1.10;;;11.90;99.90;;;;;;5008392;28;20090;-88
2021/03/11 10:42:02;;;;;;;16.50;0.90;;;12.00;99.90;;;;;;5002702;28;20057;-91
2021/03/11 10:44:32;;;;;;;13.95;1.38;;;11.90;99.90;;;;;;5022394;28;20041;-89
2021/03/11 10:47:16;;;;;;;15.15;1.38;;;12.00;99.90;;;;;;5006937;28;20067;-89
2021/03/11 10:49:42;;;;;;;21.15;1.80;;;12.00;99.90;;;;;;5012206;28;20041;-88
2021/03/11 10:52:10;;;;;;;21.27;1.58;;;12.00;99.90;;;;;;5011920;28;20030;-87
2021/03/11 10:54:36;;;;;;;20.60;1.73;;;12.00;99.90;;;;;;5028457;28;20037;-88
2021/03/11 10:57:13;;;;;;;13.27;1.92;;;11.90;99.90;;;;;;5011011;28;20064;-89
2021/03/11 10:59:58;;;;;;;16.25;1.50;;;11.80;99.90;;;;;;5028031;28;20030;-88
2021/03/11 11:02:28;;;;;;;15.57;0.90;;;11.70;99.90;;;;;;5045457;28;20041;-88
2021/03/11 11:04:55;;;;;;;;;;;11.50;99.90;;;;;;5011737;28;20040;-93
2021/03/11 11:07:21;;;;;;;16.88;1.00;;;11.80;99.90;;;;;;5027116;28;19909;-87
2021/03/11 11:09:47;;;;;;;16.05;1.13;;;11.80;99.90;;;;;;5010940;28;20033;-86
2021/03/11 11:12:18;;;;;;;17.52;1.45;;;11.90;99.90;;;;;;5010315;28;20083;-86
2021/03/11 11:14:45;;;;;;;16.30;1.60;;;12.00;99.90;;;;;;5007880;28;20037;-89
2021/03/11 11:17:12;;;;;;;20.50;1.75;;;11.80;99.90;;;;;;5019223;28;20095;-88
2021/03/11 11:19:42;;;;;;;29.77;3.13;;;11.30;99.90;;;;;;5004194;28;20063;-93
2021/03/11 11:22:09;;;;;;;18.83;1.27;;;11.30;99.90;;;;;;5010330;28;20047;-92
2021/03/11 11:24:41;;;;;;;15.65;1.52;;;11.20;99.90;;;;;;5011417;28;20167;-89
2021/03/11 11:27:13;;;;;;;20.13;1.70;;;11.20;99.90;;;;;;5009486;28;20437;-87
2021/03/11 11:29:41;;;;;;;20.50;1.52;;;11.30;99.90;;;;;;5010866;28;20029;-90
2021/03/11 11:32:08;;;;;;;18.42;1.50;;;11.00;99.90;;;;;;5001410;28;20034;-88
2021/03/11 11:34:33;;;;;;;20.65;1.65;;;11.10;99.90;;;;;;4999519;28;20057;-90
2021/03/11 11:37:05;;;;;;;23.75;2.10;;;11.40;99.90;;;;;;5008388;28;20033;-95
2021/03/11 11:39:31;;;;;;;17.63;1.50;;;11.60;99.90;;;;;;5008730;28;20105;-88
2021/03/11 11:41:57;;;;;;;23.42;1.92;;;11.70;99.90;;;;;;5003767;28;20056;-92
2021/03/11 11:44:44;;;;;;;21.38;1.23;;;11.80;99.90;;;;;;5027576;28;20029;-91
2021/03/11 11:47:10;;;;;;;15.75;1.00;;;11.80;99.90;;;;;;5011019;28;20033;-88
2021/03/11 11:49:37;;;;;;;20.33;1.58;;;11.80;99.90;;;;;;5010461;28;20064;-90
2021/03/11 11:52:03;;;;;;;21.77;1.08;;;11.90;99.90;;;;;;5016235;28;20095;-90
2021/03/11 11:54:28;;;;;;;12.90;1.10;;;11.90;99.90;;;;;;5010534;28;20462;-89
2021/03/11 11:56:54;;;;;;;24.13;1.35;;;11.90;99.90;;;;;;5007015;28;20029;-90
2021/03/11 11:59:20;;;;;;;13.77;1.23;;;11.90;99.90;;;;;;5012493;28;20033;-89
2021/03/11 12:01:47;;;;;;;18.83;1.67;;;11.90;99.90;;;;;;5008415;28;20069;-90
2021/03/11 12:04:14;;;;;;;18.63;1.33;;;11.90;99.90;;;;;;5010544;28;20033;-91
2021/03/11 12:06:43;;;;;;;12.90;0.82;;;11.80;99.90;;;;;;5009308;28;20048;-91
2021/03/11 12:09:08;;;;;;;11.63;1.17;;;11.90;99.90;;;;;;5026783;28;20044;-89
2021/03/11 12:11:34;;;;;;;17.60;1.65;;;11.90;99.90;;;;;;5027028;28;20037;-86
2021/03/11 12:14:03;;;;;;;11.10;0.90;;;11.90;99.90;;;;;;5010484;28;20060;-93
2021/03/11 12:16:30;;;;;;;9.18;0.98;;;11.90;99.90;;;;;;5004902;28;20040;-88
2021/03/11 12:18:56;;;;;;;18.52;1.35;;;12.00;99.90;;;;;;5008029;28;20064;-89
2021/03/11 12:21:23;;;;;;;14.98;1.40;;;12.10;99.90;;;;;;5010139;28;20045;-89
2021/03/11 12:23:54;;;;;;;15.70;1.08;;;11.90;99.90;;;;;;5010497;28;20029;-91
2021/03/11 12:26:20;;;;;;;13.35;0.98;;;12.00;99.90;;;;;;5005427;28;20021;-89
2021/03/11 12:28:50;;;;;;;10.02;0.80;;;11.90;99.90;;;;;;5007867;28;20053;-87
2021/03/11 12:31:16;;;;;;;17.70;1.08;;;11.90;99.90;;;;;;5026661;28;20057;-90
2021/03/11 12:33:46;;;;;;;20.23;1.10;;;12.00;99.90;;;;;;5009897;28;20033;-90
2021/03/11 12:36:12;;;;;;;16.77;1.40;;;11.90;99.90;;;;;;5008017;28;20036;-89
2021/03/11 12:38:38;;;;;;;19.02;1.30;;;11.90;99.90;;;;;;5007904;28;20057;-87
2021/03/11 12:41:05;;;;;;;18.77;1.33;;;12.00;99.90;;;;;;5004474;28;20073;-88
2021/03/11 12:43:30;;;;;;;14.85;1.30;;;11.90;99.90;;;;;;4987162;28;20111;-90
2021/03/11 12:45:57;;;;;;;15.70;1.40;;;11.90;99.90;;;;;;4989239;28;20125;-88
2021/03/11 12:48:23;;;;;;;17.50;1.55;;;12.10;99.90;;;;;;5004794;28;20038;-88
2021/03/11 12:50:49;;;;;;;13.02;1.25;;;12.00;99.90;;;;;;5006830;28;20042;-92
2021/03/11 12:53:16;;;;;;;12.13;1.27;;;12.10;99.90;;;;;;4990364;28;20061;-91
2021/03/11 12:55:48;;;;;;;11.55;1.17;;;12.00;99.90;;;;;;4984680;28;20097;-91
2021/03/11 12:58:35;;;;;;;13.25;1.08;;;12.10;99.90;;;;;;4986596;28;20033;-92
2021/03/11 13:01:03;;;;;;;17.10;1.17;;;12.30;99.90;;;;;;4986664;28;20112;-91
2021/03/11 13:03:29;;;;;;;10.00;1.05;;;12.10;99.90;;;;;;5002420;28;20037;-91